Time;durP1;ratioP1;P1;durP2;ratioP2;P2;SDS_P1;SDS_P2;PMS_P1;PMS_P2;Temp;Humidity;BMP_temperature;BMP_pressure;BME280_temperature;BME280_humidity;BME280_pressure;Samples;Min_cycle;Max_cycle;Signal;HPM_P1;HPM_P2
2023/10/08 00:01:42;;;;;;;18.50;10.05;;;13.30;99.90;;;;;;4938642;29;20066;-81
2023/10/08 00:04:10;;;;;;;18.75;8.80;;;13.40;99.90;;;;;;4950080;29;20039;-75
2023/10/08 00:06:37;;;;;;;18.95;9.90;;;13.40;99.90;;;;;;4951306;28;20464;-74
2023/10/08 00:09:07;;;;;;;21.08;9.73;;;13.40;99.90;;;;;;4941057;29;20114;-74
2023/10/08 00:11:36;;;;;;;18.17;8.57;;;13.40;99.90;;;;;;4955956;29;20027;-76
2023/10/08 00:14:05;;;;;;;18.27;8.82;;;13.40;99.90;;;;;;4956522;29;20116;-82
2023/10/08 00:16:33;;;;;;;17.05;8.40;;;13.50;99.90;;;;;;4956261;29;20035;-75
2023/10/08 00:19:07;;;;;;;18.33;9.18;;;13.50;99.90;;;;;;4938957;29;20047;-81
2023/10/08 00:21:35;;;;;;;17.83;9.80;;;13.50;99.90;;;;;;4953272;29;20467;-75
2023/10/08 00:24:05;;;;;;;20.40;9.18;;;13.50;99.90;;;;;;4959466;28;20043;-76
2023/10/08 00:26:31;;;;;;;16.17;8.57;;;13.50;99.90;;;;;;4963307;28;20375;-79
2023/10/08 00:29:22;;;;;;;19.48;9.27;;;13.50;99.90;;;;;;4953944;29;20027;-74
2023/10/08 00:31:49;;;;;;;20.23;9.23;;;13.50;99.90;;;;;;4956346;29;20074;-74
2023/10/08 00:34:17;;;;;;;17.60;8.55;;;13.60;99.90;;;;;;4956331;29;20023;-76
2023/10/08 00:36:45;;;;;;;18.58;9.23;;;13.70;99.90;;;;;;4954642;29;20042;-76
2023/10/08 00:39:22;;;;;;;17.05;8.82;;;13.60;99.90;;;;;;4948860;29;20027;-76
2023/10/08 00:41:50;;;;;;;20.13;8.77;;;13.60;99.90;;;;;;4935238;29;20023;-81
2023/10/08 00:44:29;;;;;;;17.55;8.45;;;13.60;99.90;;;;;;4938884;29;20054;-79
2023/10/08 00:47:00;;;;;;;17.38;8.38;;;13.60;99.90;;;;;;4940331;29;20141;-75
2023/10/08 00:49:42;;;;;;;17.92;8.93;;;13.70;99.90;;;;;;4956157;29;20508;-74
2023/10/08 00:57:25;;;;;;;18.55;9.15;;;13.70;99.90;;;;;;4937296;29;20023;-74
2023/10/08 00:59:55;;;;;;;22.05;8.40;;;13.70;99.90;;;;;;4955662;29;20399;-74
2023/10/08 01:02:26;;;;;;;16.10;8.63;;;13.70;99.90;;;;;;4956025;29;20113;-75
2023/10/08 01:04:54;;;;;;;17.45;8.70;;;13.60;99.90;;;;;;4955521;29;20041;-74
2023/10/08 01:07:21;;;;;;;20.67;9.32;;;13.70;99.90;;;;;;4955846;29;20073;-75
2023/10/08 01:09:51;;;;;;;17.65;9.13;;;13.70;99.90;;;;;;4955594;29;20030;-76
2023/10/08 01:14:53;;;;;;;;;;;13.80;99.90;;;;;;4955907;28;20032;-79
2023/10/08 01:17:24;;;;;;;22.33;9.25;;;13.90;99.90;;;;;;4950541;29;19914;-79
2023/10/08 01:22:44;;;;;;;20.60;10.35;;;14.00;99.90;;;;;;4914863;29;20565;-79
2023/10/08 01:25:10;;;;;;;16.10;7.50;;;14.00;99.90;;;;;;4915338;29;20032;-81
2023/10/08 01:27:37;;;;;;;18.80;8.70;;;14.10;99.90;;;;;;4899244;29;20043;-75
2023/10/08 01:30:17;;;;;;;19.17;8.65;;;14.10;99.90;;;;;;4915396;29;20043;-77
2023/10/08 01:32:44;;;;;;;18.77;8.57;;;14.10;99.90;;;;;;4915145;29;20040;-74
2023/10/08 01:35:22;;;;;;;21.70;9.57;;;14.20;99.90;;;;;;4915043;29;20039;-78
2023/10/08 01:37:56;;;;;;;21.08;8.98;;;14.20;99.90;;;;;;4915219;29;20080;-75
2023/10/08 01:40:22;;;;;;;16.52;8.20;;;14.20;99.90;;;;;;4899146;29;20032;-74
2023/10/08 01:42:52;;;;;;;17.92;8.75;;;14.20;99.90;;;;;;4899110;29;20593;-75
2023/10/08 01:45:18;;;;;;;19.98;8.68;;;14.30;99.90;;;;;;4914602;29;20063;-83
2023/10/08 01:47:44;;;;;;;18.40;8.80;;;14.30;99.90;;;;;;4898948;29;20041;-75
2023/10/08 01:50:22;;;;;;;22.13;9.73;;;14.40;99.90;;;;;;4914697;29;20042;-78
2023/10/08 01:52:49;;;;;;;25.50;10.05;;;14.40;99.90;;;;;;4899011;29;20036;-79
2023/10/08 01:55:19;;;;;;;19.70;8.93;;;14.40;99.90;;;;;;4914737;29;20088;-82
2023/10/08 01:57:53;;;;;;;17.45;8.73;;;14.20;99.90;;;;;;4914143;29;20487;-75
2023/10/08 02:00:19;;;;;;;22.65;9.30;;;14.20;99.90;;;;;;4937402;29;20043;-75
2023/10/08 02:02:47;;;;;;;17.38;9.40;;;14.10;99.90;;;;;;4954449;29;20031;-75
2023/10/08 02:05:15;;;;;;;21.75;10.15;;;14.10;99.90;;;;;;4955165;29;20023;-74
2023/10/08 02:07:44;;;;;;;19.17;9.82;;;14.10;99.90;;;;;;4954800;29;20090;-74
2023/10/08 02:10:11;;;;;;;25.35;9.88;;;14.00;99.90;;;;;;4954517;29;20035;-75
2023/10/08 02:12:41;;;;;;;19.95;11.45;;;14.10;99.90;;;;;;4943388;29;20042;-76
2023/10/08 02:15:08;;;;;;;20.98;10.55;;;14.10;99.90;;;;;;4954702;29;20442;-74
2023/10/08 02:17:34;;;;;;;18.98;10.15;;;14.10;99.90;;;;;;4948020;29;20019;-74
2023/10/08 02:20:04;;;;;;;23.08;11.18;;;14.20;99.90;;;;;;4954888;29;20035;-75
2023/10/08 02:22:32;;;;;;;21.65;9.95;;;14.20;99.90;;;;;;4954473;28;20024;-74
2023/10/08 02:25:01;;;;;;;17.33;8.90;;;14.30;99.90;;;;;;4958315;29;20475;-74
2023/10/08 02:27:32;;;;;;;17.05;9.82;;;14.30;99.90;;;;;;4958490;29;20113;-74
2023/10/08 02:29:59;;;;;;;18.73;9.90;;;14.30;99.90;;;;;;4946896;29;20472;-74
2023/10/08 02:32:25;;;;;;;18.35;9.15;;;14.40;99.90;;;;;;4957627;29;20064;-74
2023/10/08 02:34:51;;;;;;;22.98;9.63;;;14.30;99.90;;;;;;4957309;29;20082;-74
2023/10/08 02:37:19;;;;;;;17.45;9.77;;;14.30;99.90;;;;;;4940983;29;20475;-74
2023/10/08 02:39:45;;;;;;;26.75;10.80;;;14.30;99.90;;;;;;4958463;29;20023;-74
2023/10/08 02:42:14;;;;;;;20.88;9.55;;;14.30;99.90;;;;;;4958143;29;20371;-76
2023/10/08 02:44:43;;;;;;;18.42;10.65;;;14.30;99.90;;;;;;4958365;29;20035;-75
2023/10/08 02:47:11;;;;;;;19.98;11.60;;;14.30;99.90;;;;;;4941010;29;20055;-75
2023/10/08 02:49:40;;;;;;;23.27;11.13;;;14.30;99.90;;;;;;4957824;29;20039;-74
2023/10/08 02:52:08;;;;;;;23.30;11.70;;;14.30;99.90;;;;;;4937928;29;20078;-74
2023/10/08 02:54:37;;;;;;;19.92;10.32;;;14.40;99.90;;;;;;4952713;29;20047;-76
2023/10/08 02:57:04;;;;;;;24.73;9.65;;;14.40;99.90;;;;;;4941211;29;20066;-75
2023/10/08 02:59:39;;;;;;;23.52;11.05;;;14.40;99.90;;;;;;4956159;29;20035;-83
2023/10/08 03:02:18;;;;;;;21.67;10.60;;;14.40;99.90;;;;;;4956679;29;20059;-76
2023/10/08 03:04:46;;;;;;;28.38;10.50;;;14.40;99.90;;;;;;4956644;28;20109;-82
2023/10/08 03:07:21;;;;;;;20.67;9.63;;;14.50;99.90;;;;;;4931407;29;20524;-79
2023/10/08 03:09:50;;;;;;;17.05;10.13;;;14.50;99.90;;;;;;4940830;29;20561;-76
2023/10/08 03:12:17;;;;;;;24.15;10.77;;;14.50;99.90;;;;;;4931682;29;20079;-75
2023/10/08 03:15:00;;;;;;;20.85;9.45;;;14.50;99.90;;;;;;4940609;29;20046;-75
2023/10/08 03:17:30;;;;;;;20.73;10.30;;;14.60;99.90;;;;;;4957469;29;20036;-74
2023/10/08 03:20:27;;;;;;;18.23;9.68;;;14.60;99.90;;;;;;4940394;29;20035;-75
2023/10/08 03:22:49;;;;;;;19.83;9.85;;;14.60;99.90;;;;;;4957667;29;20031;-76
2023/10/08 03:25:20;;;;;;;16.80;10.07;;;14.60;99.90;;;;;;4957313;29;20025;-79
2023/10/08 03:27:48;;;;;;;17.38;8.20;;;14.70;99.90;;;;;;4956407;28;20034;-81
2023/10/08 03:30:14;;;;;;;18.52;9.82;;;14.70;99.90;;;;;;4939988;29;20028;-75
2023/10/08 03:32:55;;;;;;;18.30;9.02;;;14.70;99.90;;;;;;4936915;29;20572;-80
2023/10/08 03:35:27;;;;;;;22.38;9.65;;;14.70;99.90;;;;;;4935999;29;20486;-76
2023/10/08 03:38:21;;;;;;;15.63;9.00;;;14.70;99.90;;;;;;4948854;29;20086;-74
2023/10/08 03:40:43;;;;;;;19.25;8.45;;;14.70;99.90;;;;;;4957167;29;20039;-74
2023/10/08 03:43:19;;;;;;;34.13;11.32;;;14.70;99.90;;;;;;4957001;29;20546;-77
2023/10/08 03:45:53;;;;;;;18.40;10.13;;;14.70;99.90;;;;;;4957116;28;20039;-76
2023/10/08 03:48:22;;;;;;;15.52;8.82;;;14.70;99.90;;;;;;4944912;29;20036;-74
2023/10/08 03:50:56;;;;;;;20.42;9.63;;;14.70;99.90;;;;;;4957562;29;20038;-73
2023/10/08 03:53:22;;;;;;;21.38;9.38;;;14.70;99.90;;;;;;4957038;29;20039;-78
2023/10/08 03:55:51;;;;;;;19.23;10.50;;;14.70;99.90;;;;;;4946882;29;20063;-74
2023/10/08 03:58:32;;;;;;;19.35;9.02;;;14.70;99.90;;;;;;4956022;29;20055;-82
2023/10/08 04:01:32;;;;;;;19.38;10.18;;;14.70;99.90;;;;;;4941059;29;20035;-77
2023/10/08 04:06:30;;;;;;;17.38;8.68;;;14.70;99.90;;;;;;4956809;29;20428;-78
2023/10/08 04:11:36;;;;;;;19.08;8.50;;;14.70;99.90;;;;;;4956798;29;20027;-79
2023/10/08 04:14:02;;;;;;;18.23;9.35;;;14.70;99.90;;;;;;4956411;29;20035;-75
2023/10/08 04:16:29;;;;;;;18.05;8.80;;;14.60;99.90;;;;;;4952388;28;20083;-74
2023/10/08 04:18:56;;;;;;;18.83;9.32;;;14.60;99.90;;;;;;4951472;29;20036;-76
2023/10/08 04:21:27;;;;;;;15.50;8.88;;;14.60;99.90;;;;;;4956456;29;20089;-81
2023/10/08 04:23:57;;;;;;;19.05;9.02;;;14.60;99.90;;;;;;4956521;29;20041;-75
2023/10/08 04:26:26;;;;;;;17.80;9.05;;;14.60;99.90;;;;;;4956544;29;20400;-75
2023/10/08 04:29:01;;;;;;;17.63;9.02;;;14.70;99.90;;;;;;4956289;29;20110;-82
2023/10/08 04:31:36;;;;;;;20.58;9.50;;;14.60;99.90;;;;;;4956313;29;20027;-76
2023/10/08 04:34:08;;;;;;;17.45;9.55;;;14.60;99.90;;;;;;4956210;29;20569;-74
2023/10/08 04:36:34;;;;;;;18.55;8.93;;;14.60;99.90;;;;;;4956141;29;20570;-82
2023/10/08 04:39:05;;;;;;;18.60;9.52;;;14.60;99.90;;;;;;4956372;29;20114;-76
2023/10/08 04:41:30;;;;;;;18.83;9.60;;;14.60;99.90;;;;;;4955848;29;20578;-74
2023/10/08 04:43:56;;;;;;;22.23;9.85;;;14.70;99.90;;;;;;4956185;29;20039;-75
2023/10/08 04:46:46;;;;;;;20.92;9.48;;;14.70;99.90;;;;;;4955498;28;20085;-74
2023/10/08 04:49:28;;;;;;;21.58;10.43;;;14.60;99.90;;;;;;4956064;29;20402;-75
2023/10/08 04:51:56;;;;;;;;;;;14.60;99.90;;;;;;4956421;29;20026;-75
2023/10/08 04:54:31;;;;;;;28.42;11.15;;;14.60;99.90;;;;;;4953565;29;19918;-75
2023/10/08 04:56:59;;;;;;;25.10;10.45;;;14.60;99.90;;;;;;4955898;29;20450;-75
2023/10/08 04:59:32;;;;;;;22.90;10.00;;;14.60;99.90;;;;;;4955813;29;20058;-75
2023/10/08 05:12:45;;;;;;;18.25;9.82;;;14.70;99.90;;;;;;4952159;29;20122;-74
2023/10/08 05:20:30;;;;;;;26.67;11.63;;;14.70;99.90;;;;;;4955514;29;20042;-82
2023/10/08 05:23:05;;;;;;;22.60;10.95;;;14.70;99.90;;;;;;4953642;29;20423;-75
2023/10/08 05:25:40;;;;;;;22.60;10.48;;;14.70;99.90;;;;;;4955343;29;20035;-75
2023/10/08 05:28:24;;;;;;;20.60;11.13;;;14.80;99.90;;;;;;4955291;29;20035;-76
2023/10/08 05:30:55;;;;;;;21.38;10.80;;;14.70;99.90;;;;;;4955072;29;20031;-76
2023/10/08 05:33:24;;;;;;;19.52;10.40;;;14.80;99.90;;;;;;4955154;29;20067;-75
2023/10/08 05:36:09;;;;;;;18.77;9.45;;;14.80;99.90;;;;;;4955026;29;20027;-75
2023/10/08 05:46:39;;;;;;;22.35;9.82;;;15.00;99.90;;;;;;4954969;29;20038;-83
2023/10/08 06:13:19;;;;;;;16.33;6.97;;;15.40;99.90;;;;;;4955056;29;20043;-73
2023/10/08 06:16:05;;;;;;;17.95;7.63;;;15.50;99.90;;;;;;4954860;29;20122;-80
2023/10/08 06:18:32;;;;;;;13.77;6.72;;;15.50;99.90;;;;;;4954784;29;20090;-74
2023/10/08 06:21:00;;;;;;;16.52;7.90;;;15.50;99.90;;;;;;4954066;29;20383;-85
2023/10/08 06:23:28;;;;;;;15.68;7.40;;;15.60;99.90;;;;;;4941912;29;20087;-81
2023/10/08 06:26:05;;;;;;;19.23;7.43;;;15.70;99.90;;;;;;4949069;29;20051;-75
2023/10/08 06:28:34;;;;;;;15.52;6.55;;;15.80;99.90;;;;;;4948446;29;20058;-74
2023/10/08 06:31:03;;;;;;;12.80;6.60;;;15.80;99.90;;;;;;4943174;29;20057;-83
2023/10/08 06:33:33;;;;;;;16.80;7.15;;;15.90;99.90;;;;;;4941684;29;20107;-73
2023/10/08 06:36:05;;;;;;;13.68;6.38;;;16.00;99.90;;;;;;4945435;29;20028;-73
2023/10/08 06:38:35;;;;;;;16.20;6.75;;;16.10;99.90;;;;;;4948104;29;20456;-74
2023/10/08 06:43:48;;;;;;;13.05;6.53;;;16.30;99.90;;;;;;4941927;29;20122;-74
2023/10/08 06:46:14;;;;;;;13.65;6.80;;;16.40;99.90;;;;;;4941734;29;20103;-82
2023/10/08 06:48:45;;;;;;;16.10;6.55;;;16.50;99.90;;;;;;4947830;29;20028;-74
2023/10/08 06:51:17;;;;;;;19.13;7.32;;;16.60;99.90;;;;;;4944235;29;20023;-78
2023/10/08 06:53:48;;;;;;;19.73;8.80;;;16.70;99.90;;;;;;4949885;29;20042;-74
2023/10/08 06:56:15;;;;;;;30.02;14.35;;;16.80;99.90;;;;;;4954362;29;20027;-80
2023/10/08 06:58:48;;;;;;;26.42;13.27;;;17.00;99.90;;;;;;4953737;29;20058;-76
2023/10/08 07:01:21;;;;;;;30.60;13.57;;;17.10;99.90;;;;;;4954340;29;20023;-84
2023/10/08 07:03:50;;;;;;;29.42;12.75;;;17.20;99.90;;;;;;4953933;29;20114;-79
2023/10/08 07:06:17;;;;;;;27.58;11.73;;;17.40;99.90;;;;;;4953523;29;20471;-85
2023/10/08 07:08:46;;;;;;;26.95;10.45;;;17.60;99.90;;;;;;4953615;28;20028;-79
2023/10/08 07:11:13;;;;;;;22.52;11.63;;;17.70;99.90;;;;;;4957652;29;20019;-83
2023/10/08 07:13:42;;;;;;;25.30;12.60;;;17.80;99.90;;;;;;4944593;29;20153;-83
2023/10/08 07:16:11;;;;;;;19.98;10.45;;;17.90;99.90;;;;;;4951652;29;20019;-79
2023/10/08 07:18:38;;;;;;;16.23;8.57;;;17.90;99.90;;;;;;4957005;29;20150;-79
2023/10/08 07:21:11;;;;;;;18.23;9.52;;;18.00;99.90;;;;;;4956760;29;20026;-79
2023/10/08 07:23:53;;;;;;;19.27;10.00;;;18.10;99.90;;;;;;4944619;29;20504;-77
2023/10/08 07:26:26;;;;;;;18.30;9.57;;;18.20;99.90;;;;;;4957123;29;20023;-80
2023/10/08 07:28:52;;;;;;;14.77;8.88;;;18.40;99.90;;;;;;4946123;28;20023;-76
2023/10/08 07:31:22;;;;;;;15.73;7.93;;;18.60;99.90;;;;;;4957672;29;20086;-78
2023/10/08 07:33:56;;;;;;;19.73;8.70;;;18.70;99.90;;;;;;4957195;28;20047;-83
2023/10/08 07:36:30;;;;;;;16.27;7.80;;;18.90;99.90;;;;;;4957720;28;20410;-79
2023/10/08 07:38:56;;;;;;;20.58;9.73;;;19.20;99.90;;;;;;4957366;29;20082;-83
2023/10/08 07:41:23;;;;;;;22.98;10.70;;;19.30;99.90;;;;;;4952928;29;20031;-84
2023/10/08 07:43:55;;;;;;;19.00;9.02;;;19.50;99.50;;;;;;4951029;29;20122;-79
2023/10/08 07:46:27;;;;;;;22.42;9.88;;;19.70;99.90;;;;;;4955496;29;20460;-81
2023/10/08 07:48:58;;;;;;;24.27;10.70;;;19.80;97.90;;;;;;4957151;29;20043;-85
2023/10/08 07:51:24;;;;;;;19.05;9.48;;;20.00;98.00;;;;;;4956589;29;20035;-77
2023/10/08 07:53:59;;;;;;;19.17;8.95;;;20.00;97.90;;;;;;4943282;29;20050;-81
2023/10/08 07:56:26;;;;;;;20.00;9.05;;;20.20;96.90;;;;;;4949459;28;20027;-76
2023/10/08 07:58:55;;;;;;;25.60;9.23;;;20.40;96.10;;;;;;4944170;29;20111;-76
2023/10/08 08:01:24;;;;;;;24.98;8.57;;;20.50;94.80;;;;;;4956172;29;20382;-84
2023/10/08 08:03:50;;;;;;;22.52;6.35;;;20.60;95.00;;;;;;4953735;29;20386;-75
2023/10/08 08:06:16;;;;;;;14.20;5.63;;;20.70;93.80;;;;;;4950681;29;20023;-83
2023/10/08 08:08:44;;;;;;;12.43;5.20;;;20.90;92.90;;;;;;4956431;29;20038;-74
2023/10/08 08:11:16;;;;;;;14.07;5.10;;;21.00;93.10;;;;;;4955864;29;20046;-75
2023/10/08 08:13:44;;;;;;;9.77;4.10;;;21.00;92.20;;;;;;4956209;29;20047;-75
2023/10/08 08:16:16;;;;;;;15.68;5.63;;;21.10;92.40;;;;;;4956151;29;20027;-77
2023/10/08 08:18:43;;;;;;;8.73;4.30;;;21.20;90.80;;;;;;4956863;29;20035;-76
2023/10/08 08:21:15;;;;;;;9.90;4.20;;;21.30;90.50;;;;;;4955212;28;20050;-77
2023/10/08 08:23:48;;;;;;;13.10;4.77;;;21.30;90.90;;;;;;4947984;29;20043;-77
2023/10/08 08:26:29;;;;;;;10.68;4.55;;;21.40;89.40;;;;;;4946661;29;20090;-76
2023/10/08 08:29:01;;;;;;;7.87;4.47;;;21.40;90.20;;;;;;4956076;29;20078;-78
2023/10/08 08:31:31;;;;;;;10.80;4.72;;;21.50;88.80;;;;;;4956280;29;20038;-84
2023/10/08 08:34:09;;;;;;;15.00;5.18;;;21.40;88.30;;;;;;4955870;29;20049;-75
2023/10/08 08:36:39;;;;;;;8.57;4.13;;;21.40;88.90;;;;;;4956552;29;20082;-75
2023/10/08 08:39:08;;;;;;;7.72;4.35;;;21.40;86.80;;;;;;4955453;29;20114;-76
2023/10/08 08:41:37;;;;;;;12.82;5.20;;;21.40;86.50;;;;;;4955583;29;20070;-77
2023/10/08 08:44:06;;;;;;;10.90;4.78;;;21.30;85.20;;;;;;4955768;29;20023;-77
2023/10/08 08:46:37;;;;;;;8.68;4.40;;;21.40;84.70;;;;;;4955304;29;20043;-83
2023/10/08 08:49:11;;;;;;;11.32;4.85;;;21.60;85.40;;;;;;4955706;29;20030;-77
2023/10/08 08:51:38;;;;;;;8.70;4.15;;;21.80;83.50;;;;;;4942704;29;20093;-77
2023/10/08 08:54:08;;;;;;;10.57;4.93;;;22.00;83.60;;;;;;4945843;29;20086;-77
2023/10/08 08:56:36;;;;;;;8.82;4.35;;;22.20;85.30;;;;;;4955198;29;20074;-77
2023/10/08 08:59:04;;;;;;;8.27;4.10;;;22.30;83.70;;;;;;4955265;29;20015;-74
2023/10/08 09:01:32;;;;;;;11.85;4.53;;;22.40;83.50;;;;;;4955898;29;20020;-80
2023/10/08 09:04:05;;;;;;;13.40;4.38;;;22.40;81.70;;;;;;4955701;29;20114;-84
2023/10/08 09:06:33;;;;;;;12.95;4.90;;;;;;;;;;4955144;29;20473;-77
2023/10/08 09:11:59;;;;;;;11.68;5.55;;;22.70;81.60;;;;;;4876403;29;20037;-75
2023/10/08 09:14:26;;;;;;;14.98;7.05;;;22.80;81.80;;;;;;4877300;29;20044;-77
2023/10/08 09:16:56;;;;;;;14.45;6.15;;;22.80;79.30;;;;;;4877296;29;20148;-75
2023/10/08 09:19:25;;;;;;;12.70;5.63;;;22.90;79.50;;;;;;4877498;29;20103;-73
2023/10/08 09:22:15;;;;;;;11.95;5.25;;;22.90;79.20;;;;;;4877753;29;20048;-74
2023/10/08 09:24:42;;;;;;;11.88;5.10;;;22.90;77.70;;;;;;4865840;29;20033;-76
2023/10/08 09:27:14;;;;;;;14.20;4.57;;;22.80;79.10;;;;;;4877633;29;20047;-74
2023/10/08 09:29:40;;;;;;;12.63;4.95;;;22.90;77.60;;;;;;4877414;29;20406;-76
2023/10/08 09:32:09;;;;;;;11.25;4.72;;;23.00;79.80;;;;;;4876935;29;20088;-75
2023/10/08 09:34:36;;;;;;;12.25;4.88;;;22.90;78.70;;;;;;4876131;29;20056;-77
2023/10/08 09:37:03;;;;;;;11.73;4.40;;;22.80;77.90;;;;;;4862016;29;20390;-80
2023/10/08 09:39:33;;;;;;;12.10;4.18;;;23.00;78.40;;;;;;4877061;29;20385;-75
2023/10/08 09:42:11;;;;;;;20.58;4.95;;;23.10;77.30;;;;;;4876433;29;20043;-76
2023/10/08 09:44:37;;;;;;;13.20;5.25;;;23.20;77.80;;;;;;4876633;29;20041;-77
2023/10/08 09:47:09;;;;;;;12.35;4.57;;;23.50;77.40;;;;;;4878128;29;20048;-77
2023/10/08 09:49:43;;;;;;;13.40;5.10;;;23.40;76.80;;;;;;4949319;29;20039;-77
2023/10/08 09:52:10;;;;;;;11.48;4.88;;;23.60;78.10;;;;;;4954973;29;20502;-80
2023/10/08 09:55:02;;;;;;;12.77;5.32;;;23.70;79.00;;;;;;4957163;28;20070;-81
2023/10/08 09:57:28;;;;;;;13.88;5.30;;;;;;;;;;4957428;28;20090;-74
2023/10/08 09:59:57;;;;;;;17.38;6.38;;;;;;;;;;4954990;29;20057;-75
2023/10/08 10:02:26;;;;;;;14.63;4.85;;;24.30;92.90;;;;;;4954980;29;20505;-75
2023/10/08 10:04:53;;;;;;;12.50;4.90;;;;;;;;;;4943436;29;20063;-74
2023/10/08 10:07:20;;;;;;;10.70;4.38;;;24.30;95.20;;;;;;4950000;29;20022;-74
2023/10/08 10:09:50;;;;;;;9.02;3.97;;;24.50;96.50;;;;;;4946413;29;20114;-75
2023/10/08 10:12:25;;;;;;;10.82;4.82;;;24.40;92.80;;;;;;4955312;29;20031;-80
2023/10/08 10:14:55;;;;;;;7.75;3.75;;;24.20;92.90;;;;;;4935582;29;20395;-77
2023/10/08 10:17:25;;;;;;;11.70;4.55;;;24.90;88.70;;;;;;4942950;29;20060;-75
2023/10/08 10:20:00;;;;;;;14.32;4.63;;;24.40;92.70;;;;;;4942136;29;20035;-75
2023/10/08 10:22:29;;;;;;;14.68;4.82;;;24.30;92.60;;;;;;4944117;29;20543;-77
2023/10/08 10:24:57;;;;;;;9.85;3.78;;;;;;;;;;4953706;29;20035;-75
2023/10/08 10:27:25;;;;;;;10.32;4.18;;;;;;;;;;4949817;29;20476;-74
2023/10/08 10:29:52;;;;;;;10.98;4.93;;;;;;;;;;4945801;29;20103;-77
2023/10/08 10:32:18;;;;;;;12.32;4.68;;;24.50;96.80;;;;;;4947919;29;20106;-82
2023/10/08 10:34:51;;;;;;;12.82;4.60;;;24.40;75.10;;;;;;4953775;29;20035;-77
2023/10/08 10:37:19;;;;;;;21.83;5.55;;;24.60;74.60;;;;;;4954007;29;20039;-81
2023/10/08 10:39:53;;;;;;;11.57;5.65;;;24.70;74.10;;;;;;4954594;29;20058;-83
2023/10/08 10:42:22;;;;;;;12.32;5.00;;;;;;;;;;4942683;29;20035;-79
2023/10/08 10:44:50;;;;;;;10.75;5.43;;;;;;;;;;4955618;28;20031;-78
2023/10/08 10:49:53;;;;;;;18.55;5.32;;;;;;;;;;4958348;29;20086;-76
2023/10/08 10:52:32;;;;;;;13.77;5.18;;;;;;;;;;4958053;29;20043;-79
2023/10/08 10:57:41;;;;;;;11.50;5.80;;;25.50;72.00;;;;;;4958264;29;20031;-80
2023/10/08 11:02:56;;;;;;;17.17;4.80;;;25.60;78.60;;;;;;4957799;29;20023;-81
2023/10/08 11:05:28;;;;;;;11.48;5.30;;;25.50;73.80;;;;;;4957942;29;20039;-82
2023/10/08 11:08:00;;;;;;;;;;;25.60;74.80;;;;;;4958203;29;20082;-78
2023/10/08 11:10:28;;;;;;;10.48;5.10;;;25.70;74.10;;;;;;4958084;29;19937;-82
2023/10/08 11:12:57;;;;;;;9.75;4.28;;;25.60;74.20;;;;;;4957609;29;20020;-77
2023/10/08 11:15:29;;;;;;;12.27;4.82;;;25.60;73.50;;;;;;4957656;29;20447;-82
2023/10/08 11:17:59;;;;;;;9.68;4.35;;;25.60;73.40;;;;;;4957726;29;20475;-83
2023/10/08 11:20:27;;;;;;;12.93;5.05;;;25.70;74.30;;;;;;4957861;29;20031;-82
2023/10/08 11:22:58;;;;;;;10.40;4.28;;;25.60;72.80;;;;;;4957640;29;20066;-81
2023/10/08 11:25:30;;;;;;;12.85;4.47;;;25.60;72.00;;;;;;4957334;29;20383;-77
2023/10/08 11:28:08;;;;;;;11.68;4.38;;;25.50;73.80;;;;;;4957541;29;20081;-79
2023/10/08 11:30:35;;;;;;;13.25;4.82;;;25.50;73.60;;;;;;4957361;29;20032;-81
2023/10/08 11:33:01;;;;;;;10.65;4.28;;;25.60;72.40;;;;;;4957475;29;20031;-83
2023/10/08 11:35:28;;;;;;;9.68;4.63;;;25.50;73.30;;;;;;4957493;29;20035;-79
2023/10/08 11:38:00;;;;;;;12.68;4.65;;;25.40;74.40;;;;;;4957442;29;20016;-77
2023/10/08 11:40:46;;;;;;;14.32;4.95;;;25.50;74.30;;;;;;4957337;29;20380;-80
2023/10/08 11:43:15;;;;;;;12.18;5.05;;;25.60;74.40;;;;;;4957262;29;20540;-78
2023/10/08 11:45:48;;;;;;;11.65;4.22;;;;;;;;;;4957351;29;20027;-84
2023/10/08 11:48:21;;;;;;;15.07;4.88;;;;;;;;;;4938143;29;20072;-76
2023/10/08 11:50:50;;;;;;;14.18;4.28;;;26.20;96.00;;;;;;4938332;29;20039;-83
2023/10/08 11:53:18;;;;;;;14.63;3.92;;;26.30;71.20;;;;;;4937686;29;20031;-81
2023/10/08 11:55:47;;;;;;;14.90;3.75;;;26.30;72.20;;;;;;4936778;29;20031;-81
2023/10/08 11:58:17;;;;;;;13.98;3.80;;;26.30;72.90;;;;;;4937773;29;20058;-83
2023/10/08 12:00:44;;;;;;;11.13;4.05;;;26.30;71.20;;;;;;4937980;29;20032;-85
2023/10/08 12:03:11;;;;;;;9.02;3.40;;;26.30;74.80;;;;;;4937524;29;20076;-82
2023/10/08 12:05:46;;;;;;;10.85;3.00;;;26.30;72.70;;;;;;4937769;29;20172;-78
2023/10/08 12:08:22;;;;;;;11.82;3.53;;;26.30;70.50;;;;;;4937907;29;20024;-84
2023/10/08 12:10:53;;;;;;;10.00;3.33;;;26.30;71.60;;;;;;4937689;29;20043;-76
2023/10/08 12:13:28;;;;;;;11.13;3.67;;;26.30;71.30;;;;;;4937861;29;20050;-80
2023/10/08 12:16:06;;;;;;;7.88;3.50;;;26.30;71.40;;;;;;4937475;29;20020;-79
2023/10/08 12:18:39;;;;;;;8.50;3.42;;;26.30;72.50;;;;;;4937419;29;20039;-78
2023/10/08 12:21:10;;;;;;;7.85;3.20;;;26.30;72.60;;;;;;4937562;29;20024;-80
2023/10/08 12:23:39;;;;;;;9.57;4.33;;;26.30;72.60;;;;;;4937596;29;20475;-82
2023/10/08 12:26:07;;;;;;;14.18;5.90;;;26.20;73.00;;;;;;4937694;29;20114;-85
2023/10/08 12:28:34;;;;;;;15.27;5.72;;;26.10;72.90;;;;;;4937256;29;20480;-82
2023/10/08 12:31:03;;;;;;;14.27;5.78;;;26.10;70.20;;;;;;4937365;29;20384;-79
2023/10/08 12:33:31;;;;;;;13.25;5.15;;;26.10;71.40;;;;;;4937124;29;20031;-77
2023/10/08 12:35:57;;;;;;;9.75;4.85;;;25.90;74.20;;;;;;4937569;29;20024;-83
2023/10/08 12:38:27;;;;;;;15.00;4.95;;;25.90;71.80;;;;;;4937411;29;20036;-83
2023/10/08 12:40:54;;;;;;;12.55;3.80;;;25.90;72.00;;;;;;4937141;29;20042;-77
2023/10/08 12:43:20;;;;;;;10.95;3.38;;;25.90;71.40;;;;;;4936970;29;20035;-85
2023/10/08 12:45:53;;;;;;;8.38;3.83;;;25.90;72.80;;;;;;4937001;29;20059;-82
2023/10/08 12:48:24;;;;;;;11.88;4.07;;;25.90;72.70;;;;;;4936964;29;20471;-82
2023/10/08 12:50:53;;;;;;;9.23;4.45;;;25.90;72.00;;;;;;4937340;29;20027;-81
2023/10/08 12:53:26;;;;;;;13.00;5.35;;;25.70;72.30;;;;;;4936954;29;20130;-83
2023/10/08 12:55:57;;;;;;;11.02;4.57;;;25.80;71.90;;;;;;4936957;29;20024;-85
2023/10/08 12:58:25;;;;;;;15.47;5.83;;;25.80;73.60;;;;;;4936626;29;20110;-87
2023/10/08 13:01:03;;;;;;;10.98;4.93;;;25.90;71.30;;;;;;4936877;29;20027;-80
2023/10/08 13:03:32;;;;;;;15.18;5.68;;;25.80;72.90;;;;;;4936801;29;20090;-82
2023/10/08 13:06:05;;;;;;;11.90;5.20;;;25.80;75.10;;;;;;4936665;29;20083;-79
2023/10/08 13:08:33;;;;;;;11.43;5.43;;;25.80;73.40;;;;;;4936444;29;20035;-84
2023/10/08 13:11:02;;;;;;;13.43;4.97;;;25.80;74.30;;;;;;4936556;29;20024;-80
2023/10/08 13:13:28;;;;;;;10.57;4.60;;;25.80;73.50;;;;;;4936545;29;20455;-80
2023/10/08 13:15:56;;;;;;;16.65;5.22;;;25.90;73.40;;;;;;4936473;29;20098;-84
2023/10/08 13:18:25;;;;;;;18.42;5.28;;;25.70;75.80;;;;;;4936839;29;20039;-81
2023/10/08 13:20:52;;;;;;;8.63;4.13;;;25.90;76.10;;;;;;4936167;29;20020;-82
2023/10/08 13:23:23;;;;;;;12.75;4.30;;;25.90;75.20;;;;;;4936556;29;20039;-84
2023/10/08 13:25:59;;;;;;;12.20;3.72;;;25.90;76.10;;;;;;4936356;29;20108;-82
2023/10/08 13:28:27;;;;;;;8.77;4.15;;;26.00;73.00;;;;;;4936470;29;20486;-85
2023/10/08 13:30:54;;;;;;;11.73;4.13;;;26.20;73.60;;;;;;4936297;29;20046;-86
2023/10/08 13:33:22;;;;;;;9.27;3.25;;;;;;;;;;4936356;29;20102;-79
2023/10/08 13:35:49;;;;;;;8.60;3.08;;;26.60;70.30;;;;;;4936394;29;20020;-80
2023/10/08 13:38:19;;;;;;;13.68;4.43;;;;;;;;;;4936020;29;20106;-79
2023/10/08 13:41:06;;;;;;;10.25;3.60;;;26.70;70.20;;;;;;4936399;29;20059;-82
2023/10/08 13:43:33;;;;;;;17.95;4.60;;;26.70;71.00;;;;;;4936297;29;20036;-79
2023/10/08 13:46:08;;;;;;;16.20;4.13;;;26.70;70.50;;;;;;4937225;29;20078;-75
2023/10/08 13:48:35;;;;;;;14.35;4.07;;;26.80;75.30;;;;;;4955506;29;20415;-82
2023/10/08 13:51:05;;;;;;;8.10;2.95;;;26.70;76.60;;;;;;4955582;29;20031;-78
2023/10/08 13:53:36;;;;;;;9.02;3.47;;;26.70;77.70;;;;;;4955452;29;20039;-83
2023/10/08 13:56:04;;;;;;;11.25;3.60;;;26.60;78.10;;;;;;4955186;29;20102;-86
2023/10/08 13:58:30;;;;;;;7.93;3.28;;;26.60;77.70;;;;;;4955059;29;20027;-80
2023/10/08 14:01:00;;;;;;;9.32;3.53;;;26.50;78.00;;;;;;4955117;29;20027;-85
2023/10/08 14:03:31;;;;;;;17.45;4.63;;;26.60;79.00;;;;;;4955045;29;20027;-79
2023/10/08 14:06:04;;;;;;;8.43;3.40;;;26.50;78.80;;;;;;4954926;29;20027;-84
2023/10/08 14:08:31;;;;;;;10.25;4.18;;;26.50;78.80;;;;;;4954620;29;20023;-80
2023/10/08 14:11:02;;;;;;;16.33;3.97;;;26.40;79.10;;;;;;4945897;29;20071;-79
2023/10/08 14:13:31;;;;;;;16.50;3.55;;;26.30;79.10;;;;;;4954613;29;20132;-76
2023/10/08 14:16:04;;;;;;;13.00;3.58;;;26.30;77.80;;;;;;4954855;29;20031;-81
2023/10/08 14:18:40;;;;;;;9.13;2.80;;;26.30;76.80;;;;;;4951462;29;20060;-81